createdAt,value
2023-05-31T00:00:28.309Z,0.00
2023-05-31T00:01:28.416Z,0.00
2023-05-31T00:02:28.620Z,0.00
2023-05-31T00:03:28.754Z,0.00
2023-05-31T00:04:32.456Z,0.00
2023-05-31T00:05:28.945Z,0.00
2023-05-31T00:06:29.029Z,0.00
2023-05-31T00:07:29.179Z,0.00
2023-05-31T00:08:29.290Z,0.00
2023-05-31T00:09:29.388Z,0.00
2023-05-31T00:10:29.546Z,0.00
2023-05-31T00:11:29.651Z,0.00
2023-05-31T00:12:29.799Z,0.00
2023-05-31T00:13:29.934Z,0.00
2023-05-31T00:14:30.066Z,0.00
2023-05-31T00:15:30.181Z,0.00
2023-05-31T00:17:50.118Z,0.00
2023-05-31T00:18:31.671Z,0.00
2023-05-31T00:19:30.767Z,0.00
2023-05-31T00:20:30.855Z,0.00
2023-05-31T00:21:30.923Z,0.00
2023-05-31T00:22:31.017Z,0.00
2023-05-31T00:23:31.104Z,0.00
2023-05-31T00:24:31.311Z,0.00
2023-05-31T00:25:31.389Z,0.00
2023-05-31T00:26:31.485Z,0.00
2023-05-31T00:27:31.581Z,0.00
2023-05-31T00:28:31.810Z,0.00
2023-05-31T00:29:31.870Z,0.00
2023-05-31T00:30:31.968Z,0.00
2023-05-31T00:31:32.176Z,0.00
2023-05-31T00:32:32.307Z,0.00
2023-05-31T00:33:32.374Z,0.00
2023-05-31T00:34:32.502Z,0.00
2023-05-31T00:35:32.596Z,0.00
2023-05-31T00:36:32.759Z,0.00
2023-05-31T00:37:32.862Z,0.00
2023-05-31T00:38:32.955Z,0.00
2023-05-31T00:39:33.155Z,0.00
2023-05-31T00:40:33.237Z,0.00
2023-05-31T00:41:33.389Z,0.00
2023-05-31T00:42:33.479Z,0.00
2023-05-31T00:43:33.686Z,0.00
2023-05-31T00:44:33.776Z,0.00
2023-05-31T00:45:33.894Z,0.00
2023-05-31T00:46:33.995Z,0.00
2023-05-31T00:47:34.110Z,0.00
2023-05-31T00:48:34.256Z,0.00
2023-05-31T00:49:34.317Z,0.00
2023-05-31T00:50:34.400Z,0.00
2023-05-31T00:51:34.565Z,0.00
2023-05-31T00:52:34.693Z,0.00
2023-05-31T00:53:34.809Z,0.00
2023-05-31T00:54:34.972Z,0.00
2023-05-31T00:55:35.080Z,0.00
2023-05-31T00:56:35.262Z,0.00
2023-05-31T00:57:35.390Z,0.00
2023-05-31T00:58:35.467Z,0.00
2023-05-31T00:59:35.586Z,0.00
2023-05-31T01:00:35.696Z,0.00
2023-05-31T01:01:35.967Z,0.00
2023-05-31T01:02:35.971Z,0.00
2023-05-31T01:03:36.106Z,0.00
2023-05-31T01:04:36.208Z,0.00
2023-05-31T01:05:36.411Z,0.00
2023-05-31T01:06:36.467Z,0.00
2023-05-31T01:07:36.647Z,0.00
2023-05-31T01:08:36.736Z,0.00
2023-05-31T01:09:36.867Z,0.00
2023-05-31T01:10:37.016Z,0.00
2023-05-31T01:11:37.122Z,0.00
2023-05-31T01:12:37.306Z,0.00
2023-05-31T01:13:37.371Z,0.00
2023-05-31T01:14:37.524Z,0.00
2023-05-31T01:15:37.621Z,0.00
2023-05-31T01:16:37.809Z,0.00
2023-05-31T01:17:37.945Z,0.00
2023-05-31T01:18:38.026Z,0.00
2023-05-31T01:19:38.142Z,0.00
2023-05-31T01:20:38.381Z,0.00
2023-05-31T01:21:38.346Z,0.00
2023-05-31T01:22:38.449Z,0.00
2023-05-31T01:23:38.548Z,0.00
2023-05-31T01:24:38.644Z,0.00
2023-05-31T01:25:38.905Z,0.00
2023-05-31T01:26:38.902Z,0.00
2023-05-31T01:27:39.037Z,0.00
2023-05-31T01:28:39.112Z,0.00
2023-05-31T01:29:39.209Z,0.00
2023-05-31T01:30:39.351Z,0.00
2023-05-31T01:31:39.533Z,0.00
2023-05-31T01:32:39.582Z,0.00
2023-05-31T01:33:39.654Z,0.00
2023-05-31T01:34:39.807Z,0.00
2023-05-31T01:35:39.897Z,0.00
2023-05-31T01:36:40.078Z,0.00
2023-05-31T01:37:40.176Z,0.00
2023-05-31T01:38:40.322Z,0.00
2023-05-31T01:39:40.420Z,0.00
2023-05-31T01:40:40.571Z,0.00
2023-05-31T01:41:40.714Z,0.00
2023-05-31T01:42:40.815Z,0.00
2023-05-31T01:43:40.909Z,0.00
2023-05-31T01:44:41.008Z,0.00
2023-05-31T01:45:41.180Z,0.00
2023-05-31T01:46:41.257Z,0.00
2023-05-31T01:47:41.441Z,0.00
2023-05-31T01:48:41.553Z,0.00
2023-05-31T01:49:41.651Z,0.00
2023-05-31T01:50:41.781Z,0.00
2023-05-31T01:51:41.914Z,0.00
2023-05-31T01:52:42.034Z,0.00
2023-05-31T01:53:42.217Z,0.00
2023-05-31T01:54:42.347Z,0.00
2023-05-31T01:55:42.438Z,0.00
2023-05-31T01:56:42.560Z,0.00
2023-05-31T01:57:42.670Z,0.00
2023-05-31T01:58:42.839Z,0.00
2023-05-31T01:59:42.908Z,0.00
2023-05-31T02:00:43.007Z,0.00
2023-05-31T02:01:43.120Z,0.00
2023-05-31T02:02:43.306Z,0.00
2023-05-31T02:03:43.424Z,0.00
2023-05-31T02:04:43.513Z,0.00
2023-05-31T02:05:43.548Z,0.00
2023-05-31T02:06:43.663Z,0.00
2023-05-31T02:07:43.791Z,0.00
2023-05-31T02:08:43.883Z,0.00
2023-05-31T02:09:44.006Z,0.00
2023-05-31T02:10:44.110Z,0.00
2023-05-31T02:11:44.210Z,0.00
2023-05-31T02:12:44.363Z,0.00
2023-05-31T02:13:44.446Z,0.00
2023-05-31T02:14:44.635Z,0.00
2023-05-31T02:15:44.741Z,0.00
2023-05-31T02:16:44.921Z,0.00
2023-05-31T02:17:45.079Z,0.00
2023-05-31T02:18:45.117Z,0.00
2023-05-31T02:19:48.679Z,0.00
2023-05-31T02:20:46.997Z,0.00
2023-05-31T02:21:45.462Z,0.00
2023-05-31T02:22:45.611Z,0.00
2023-05-31T02:23:45.772Z,0.00
2023-05-31T02:24:45.876Z,0.00
2023-05-31T02:25:46.022Z,0.00
2023-05-31T02:26:46.105Z,0.00
2023-05-31T02:27:46.207Z,0.00
2023-05-31T02:28:46.312Z,0.00
2023-05-31T02:29:46.412Z,0.00
2023-05-31T02:30:47.539Z,0.00
2023-05-31T02:31:46.733Z,0.00
2023-05-31T02:32:46.792Z,0.00
2023-05-31T02:33:46.903Z,0.00
2023-05-31T02:34:47.057Z,0.00
2023-05-31T02:35:47.204Z,0.00
2023-05-31T02:36:47.354Z,0.00
2023-05-31T02:37:47.439Z,0.00
2023-05-31T02:38:47.539Z,0.00
2023-05-31T02:39:47.693Z,0.00
2023-05-31T02:40:47.838Z,0.00
2023-05-31T02:41:48.013Z,0.00
2023-05-31T02:42:48.098Z,0.00
2023-05-31T02:43:48.225Z,0.00
2023-05-31T02:44:48.381Z,0.00
2023-05-31T02:45:48.502Z,0.00
2023-05-31T02:46:48.715Z,0.00
2023-05-31T02:47:48.748Z,4.00
2023-05-31T02:48:48.863Z,4.00
2023-05-31T02:49:49.040Z,4.00
2023-05-31T02:50:49.160Z,4.00
2023-05-31T02:51:49.317Z,4.00
2023-05-31T02:52:49.415Z,4.00
2023-05-31T02:53:49.527Z,4.00
2023-05-31T02:54:49.693Z,4.00
2023-05-31T02:55:49.772Z,4.00
2023-05-31T02:56:49.878Z,4.00
2023-05-31T02:57:49.979Z,4.00
2023-05-31T02:58:50.065Z,4.00
2023-05-31T02:59:50.164Z,4.00
2023-05-31T03:00:50.256Z,8.00
2023-05-31T03:01:50.475Z,4.00
2023-05-31T03:02:50.626Z,4.00
2023-05-31T03:03:50.783Z,8.00
2023-05-31T03:04:50.813Z,8.00
2023-05-31T03:05:50.958Z,12.00
2023-05-31T03:06:51.085Z,12.00
2023-05-31T03:07:51.189Z,16.00
2023-05-31T03:08:51.384Z,12.00
2023-05-31T03:09:51.415Z,16.00
2023-05-31T03:10:51.509Z,16.00
2023-05-31T03:11:51.647Z,20.00
2023-05-31T03:12:52.045Z,24.00
2023-05-31T03:13:51.945Z,24.00
2023-05-31T03:14:52.054Z,28.00
2023-05-31T03:15:52.155Z,28.00
2023-05-31T03:16:52.283Z,32.00
2023-05-31T03:17:52.420Z,40.00
2023-05-31T03:18:52.537Z,40.00
2023-05-31T03:19:52.679Z,48.00
2023-05-31T03:20:52.922Z,52.00
2023-05-31T03:21:52.907Z,56.00
2023-05-31T03:22:53.043Z,60.00
2023-05-31T03:23:53.186Z,68.00
2023-05-31T03:24:53.296Z,76.00
2023-05-31T03:25:53.415Z,80.00
2023-05-31T03:26:53.509Z,88.00
2023-05-31T03:27:53.655Z,96.00
2023-05-31T03:28:53.796Z,100.00
2023-05-31T03:29:54.428Z,112.00
2023-05-31T03:30:53.981Z,120.00
2023-05-31T03:31:54.122Z,128.00
2023-05-31T03:32:54.276Z,140.00
2023-05-31T03:33:54.368Z,148.00
2023-05-31T03:34:54.554Z,160.00
2023-05-31T03:35:54.597Z,164.00
2023-05-31T03:36:54.693Z,180.00
2023-05-31T03:37:54.862Z,188.00
2023-05-31T03:38:54.992Z,196.00
2023-05-31T03:39:55.235Z,212.00
2023-05-31T03:40:55.223Z,224.00
2023-05-31T03:41:55.324Z,236.00
2023-05-31T03:42:55.468Z,248.00
2023-05-31T03:43:55.553Z,256.00
2023-05-31T03:44:55.683Z,276.00
2023-05-31T03:45:55.884Z,292.00
2023-05-31T03:46:55.918Z,304.00
2023-05-31T03:47:56.092Z,312.00
2023-05-31T03:48:57.386Z,328.00
2023-05-31T03:49:56.301Z,344.00
2023-05-31T03:50:56.454Z,352.00
2023-05-31T03:51:56.494Z,372.00
2023-05-31T03:52:56.641Z,388.00
2023-05-31T03:53:56.733Z,404.00
2023-05-31T03:54:56.877Z,416.00
2023-05-31T03:56:00.458Z,440.00
2023-05-31T03:56:57.141Z,448.00
2023-05-31T03:57:57.255Z,456.00
2023-05-31T03:58:57.396Z,480.00
2023-05-31T03:59:57.543Z,492.00
2023-05-31T04:00:57.727Z,496.00
2023-05-31T04:01:57.833Z,528.00
2023-05-31T04:03:59.266Z,568.00
2023-05-31T04:04:58.258Z,572.00
2023-05-31T04:05:58.299Z,572.00
2023-05-31T04:06:58.424Z,624.00
2023-05-31T04:07:58.556Z,640.00
2023-05-31T04:08:58.720Z,616.00
2023-05-31T04:09:58.894Z,660.00
2023-05-31T04:10:59.137Z,716.00
2023-05-31T04:11:59.053Z,692.00
2023-05-31T04:12:59.213Z,680.00
2023-05-31T04:13:59.379Z,720.00
2023-05-31T04:14:59.486Z,756.00
2023-05-31T04:15:59.635Z,808.00
2023-05-31T04:16:59.719Z,764.00
2023-05-31T04:17:59.874Z,756.00
2023-05-31T04:18:59.958Z,796.00
2023-05-31T04:20:00.066Z,844.00
2023-05-31T04:21:00.391Z,792.00
2023-05-31T04:22:00.394Z,868.00
2023-05-31T04:23:00.445Z,804.00
2023-05-31T04:24:00.568Z,884.00
2023-05-31T04:25:00.662Z,912.00
2023-05-31T04:26:00.816Z,936.00
2023-05-31T04:27:00.961Z,952.00
2023-05-31T04:28:01.116Z,960.00
2023-05-31T04:29:01.308Z,980.00
2023-05-31T04:30:01.433Z,964.00
2023-05-31T04:31:01.798Z,1004.00
2023-05-31T04:32:01.663Z,1016.00
2023-05-31T04:33:01.778Z,1036.00
2023-05-31T04:34:01.936Z,1052.00
2023-05-31T04:35:02.041Z,1044.00
2023-05-31T04:36:02.127Z,1088.00
2023-05-31T04:37:02.219Z,1080.00
2023-05-31T04:38:02.371Z,1084.00
2023-05-31T04:39:02.468Z,1076.00
2023-05-31T04:40:02.629Z,1064.00
2023-05-31T04:41:02.649Z,1076.00
2023-05-31T04:42:02.786Z,1072.00
2023-05-31T04:43:02.957Z,1092.00
2023-05-31T04:44:03.086Z,1160.00
2023-05-31T04:45:03.263Z,1180.00
2023-05-31T04:46:03.391Z,1216.00
2023-05-31T04:47:03.514Z,1236.00
2023-05-31T04:48:03.608Z,1236.00
2023-05-31T04:49:03.737Z,1244.00
2023-05-31T04:50:03.891Z,1260.00
2023-05-31T04:51:03.986Z,1280.00
2023-05-31T04:52:04.127Z,1284.00
2023-05-31T04:53:04.238Z,1288.00
2023-05-31T04:54:04.341Z,1316.00
2023-05-31T04:55:04.488Z,1368.00
2023-05-31T04:56:04.687Z,1368.00
2023-05-31T04:57:04.737Z,1368.00
2023-05-31T04:58:04.834Z,1380.00
2023-05-31T04:59:04.990Z,1384.00
2023-05-31T05:00:05.179Z,1396.00
2023-05-31T05:01:05.277Z,1452.00
2023-05-31T05:02:05.617Z,1468.00
2023-05-31T05:03:06.387Z,1468.00
2023-05-31T05:04:05.687Z,1484.00
2023-05-31T05:05:05.708Z,1440.00
2023-05-31T05:06:06.011Z,1508.00
2023-05-31T05:07:05.991Z,1536.00
2023-05-31T05:08:06.145Z,1644.00
2023-05-31T05:09:06.311Z,1640.00
2023-05-31T05:10:06.421Z,1668.00
2023-05-31T05:11:06.546Z,1528.00
2023-05-31T05:12:06.632Z,1752.00
2023-05-31T05:13:06.778Z,1756.00
2023-05-31T05:14:06.887Z,1896.00
2023-05-31T05:15:06.989Z,1900.00
2023-05-31T05:16:07.137Z,1932.00
2023-05-31T05:17:07.429Z,1900.00
2023-05-31T05:18:07.418Z,1952.00
2023-05-31T05:19:07.621Z,1920.00
2023-05-31T05:20:07.620Z,1944.00
2023-05-31T05:21:07.703Z,1920.00
2023-05-31T05:22:07.832Z,1888.00
2023-05-31T05:23:07.979Z,1880.00
2023-05-31T05:24:08.088Z,1888.00
2023-05-31T05:25:08.194Z,1900.00
2023-05-31T05:26:08.319Z,1912.00
2023-05-31T05:27:08.411Z,1872.00
2023-05-31T05:28:08.535Z,1884.00
2023-05-31T05:29:08.684Z,1928.00
2023-05-31T05:30:08.836Z,1948.00
2023-05-31T05:31:08.957Z,1972.00
2023-05-31T05:32:09.040Z,2024.00
2023-05-31T05:33:09.122Z,2032.00
2023-05-31T05:34:09.268Z,2080.00
2023-05-31T05:35:09.381Z,2168.00
2023-05-31T05:36:09.513Z,2220.00
2023-05-31T05:37:09.652Z,2216.00
2023-05-31T05:38:09.798Z,2280.00
2023-05-31T05:39:09.891Z,2256.00
2023-05-31T05:40:10.029Z,2240.00
2023-05-31T05:41:10.153Z,2252.00
2023-05-31T05:42:10.322Z,2256.00
2023-05-31T05:43:10.410Z,2300.00
2023-05-31T05:44:10.518Z,2300.00
2023-05-31T05:45:10.670Z,2360.00
2023-05-31T05:46:10.785Z,2384.00
2023-05-31T05:47:10.850Z,2432.00
2023-05-31T05:48:11.053Z,2368.00
2023-05-31T05:49:11.097Z,2372.00
2023-05-31T05:50:11.239Z,2284.00
2023-05-31T05:51:11.382Z,2236.00
2023-05-31T05:52:11.460Z,2224.00
2023-05-31T05:53:11.581Z,2260.00
2023-05-31T05:54:11.681Z,2404.00
2023-05-31T05:55:11.770Z,2356.00
2023-05-31T05:56:11.865Z,2336.00
2023-05-31T05:57:12.017Z,2468.00
2023-05-31T05:58:12.128Z,2508.00
2023-05-31T05:59:12.298Z,2564.00
2023-05-31T06:00:12.331Z,2572.00
2023-05-31T06:01:12.456Z,2588.00
2023-05-31T06:02:12.592Z,2604.00
2023-05-31T06:03:12.807Z,2524.00
2023-05-31T06:04:12.887Z,2704.00
2023-05-31T06:05:12.996Z,2640.00
2023-05-31T06:06:13.164Z,2636.00
2023-05-31T06:07:13.216Z,2644.00
2023-05-31T06:08:13.421Z,2700.00
2023-05-31T06:09:13.546Z,2708.00
2023-05-31T06:10:13.638Z,2652.00
2023-05-31T06:11:13.791Z,2736.00
2023-05-31T06:12:13.908Z,2804.00
2023-05-31T06:13:13.996Z,2856.00
2023-05-31T06:14:14.155Z,2872.00
2023-05-31T06:15:14.323Z,2960.00
2023-05-31T06:16:14.385Z,2956.00
2023-05-31T06:17:14.480Z,3024.00
2023-05-31T06:18:14.593Z,3096.00
2023-05-31T06:19:14.684Z,3060.00
2023-05-31T06:20:14.836Z,3420.00
2023-05-31T06:21:14.935Z,3548.00
2023-05-31T06:22:15.020Z,3696.00
2023-05-31T06:23:15.171Z,3728.00
2023-05-31T06:24:15.232Z,3944.00
2023-05-31T06:25:15.362Z,4064.00
2023-05-31T06:26:15.433Z,4204.00
2023-05-31T06:27:15.593Z,4288.00
2023-05-31T06:28:15.711Z,4576.00
2023-05-31T06:29:15.847Z,4592.00
2023-05-31T06:30:15.962Z,5152.00
2023-05-31T06:31:16.043Z,4972.00
2023-05-31T06:32:16.192Z,5100.00
2023-05-31T06:33:16.295Z,4724.00
2023-05-31T06:34:16.400Z,4760.00
2023-05-31T06:35:16.572Z,4636.00
2023-05-31T06:36:16.687Z,4556.00
2023-05-31T06:37:16.798Z,4624.00
2023-05-31T06:38:16.875Z,4656.00
2023-05-31T06:39:17.017Z,4636.00
2023-05-31T06:40:17.170Z,4652.00
2023-05-31T06:41:17.264Z,4788.00
2023-05-31T06:42:18.395Z,5196.00
2023-05-31T06:43:17.533Z,5020.00
2023-05-31T06:44:17.653Z,4616.00
2023-05-31T06:45:17.774Z,5092.00
2023-05-31T06:46:17.872Z,5392.00
2023-05-31T06:47:18.031Z,5420.00
2023-05-31T06:48:18.116Z,5684.00
2023-05-31T06:49:18.217Z,5704.00
2023-05-31T06:50:18.331Z,5820.00
2023-05-31T06:51:18.425Z,5992.00
2023-05-31T06:52:18.615Z,6144.00
2023-05-31T06:53:18.688Z,6280.00
2023-05-31T06:54:18.842Z,6320.00
2023-05-31T06:55:18.984Z,6404.00
2023-05-31T06:56:19.093Z,6432.00
2023-05-31T06:57:19.288Z,6788.00
2023-05-31T06:58:19.346Z,6600.00
2023-05-31T06:59:19.450Z,6784.00
2023-05-31T07:00:19.577Z,7324.00
2023-05-31T07:01:19.753Z,7576.00
2023-05-31T07:02:19.886Z,7144.00
2023-05-31T07:03:20.041Z,7380.00
2023-05-31T07:04:20.125Z,7144.00
2023-05-31T07:05:20.222Z,7744.00
2023-05-31T07:06:22.429Z,7324.00
2023-05-31T07:07:20.470Z,7256.00
2023-05-31T07:08:20.568Z,7796.00
2023-05-31T07:09:20.667Z,7544.00
2023-05-31T07:10:20.819Z,7220.00
2023-05-31T07:11:20.957Z,7256.00
2023-05-31T07:12:21.082Z,7420.00
2023-05-31T07:13:21.234Z,7464.00
2023-05-31T07:14:21.317Z,7440.00
2023-05-31T07:15:21.477Z,7724.00
2023-05-31T07:16:21.612Z,7612.00
2023-05-31T07:17:21.701Z,7580.00
2023-05-31T07:18:21.852Z,7664.00
2023-05-31T07:19:21.889Z,7644.00
2023-05-31T07:20:21.990Z,7640.00
2023-05-31T07:21:22.132Z,7708.00
2023-05-31T07:22:22.250Z,7852.00
2023-05-31T07:23:22.483Z,8152.00
2023-05-31T07:24:22.528Z,7988.00
2023-05-31T07:25:22.676Z,8044.00
2023-05-31T07:26:22.808Z,8100.00
2023-05-31T07:27:22.978Z,8244.00
2023-05-31T07:28:23.095Z,8336.00
2023-05-31T07:29:23.205Z,8528.00
2023-05-31T07:30:23.328Z,8712.00
2023-05-31T07:31:23.419Z,8828.00
2023-05-31T07:32:23.597Z,8864.00
2023-05-31T07:33:28.583Z,9004.00
2023-05-31T07:34:24.875Z,9296.00
2023-05-31T07:35:23.964Z,9420.00
2023-05-31T07:36:24.064Z,9668.00
2023-05-31T07:37:24.203Z,9864.00
2023-05-31T07:38:24.344Z,9916.00
2023-05-31T07:39:24.509Z,10192.00
2023-05-31T07:40:24.645Z,10576.00
2023-05-31T07:41:24.778Z,10712.00
2023-05-31T07:42:24.898Z,11156.00
2023-05-31T07:43:25.013Z,11912.00
2023-05-31T07:44:25.122Z,12340.00
2023-05-31T07:45:25.262Z,12928.00
2023-05-31T07:46:25.412Z,12992.00
2023-05-31T07:47:25.646Z,16928.00
2023-05-31T07:48:25.609Z,19008.00
2023-05-31T07:49:25.809Z,21568.00
2023-05-31T07:50:25.926Z,25568.00
2023-05-31T07:51:26.002Z,31776.00
2023-05-31T07:52:26.156Z,33184.00
2023-05-31T07:53:26.239Z,34336.00
2023-05-31T07:54:26.332Z,34176.00
2023-05-31T07:55:26.699Z,38624.00
2023-05-31T07:56:26.648Z,39168.00
2023-05-31T07:57:26.728Z,42688.00
2023-05-31T07:58:26.834Z,44928.00
2023-05-31T07:59:26.940Z,43040.00
2023-05-31T08:00:28.072Z,38208.00
2023-05-31T08:01:27.182Z,30848.00
2023-05-31T08:02:27.424Z,25120.00
2023-05-31T08:03:27.556Z,23424.00
2023-05-31T08:04:27.581Z,22048.00
2023-05-31T08:05:27.808Z,19840.00
2023-05-31T08:06:27.852Z,22624.00
2023-05-31T08:07:28.006Z,19520.00
2023-05-31T08:08:28.096Z,17984.00
2023-05-31T08:09:28.232Z,17600.00
2023-05-31T08:10:28.377Z,18240.00
2023-05-31T08:11:28.572Z,18816.00
2023-05-31T08:12:31.743Z,18592.00
2023-05-31T08:13:28.740Z,18464.00
2023-05-31T08:14:28.906Z,18656.00
2023-05-31T08:15:29.123Z,19232.00
2023-05-31T08:16:29.204Z,19072.00
2023-05-31T08:17:29.355Z,17920.00
2023-05-31T08:18:29.408Z,18432.00
2023-05-31T08:19:29.604Z,18592.00
2023-05-31T08:20:31.638Z,18720.00
2023-05-31T08:21:29.865Z,19136.00
2023-05-31T08:22:29.966Z,18880.00
2023-05-31T08:23:30.082Z,18912.00
2023-05-31T08:24:30.209Z,22496.00
2023-05-31T08:25:30.403Z,22528.00
2023-05-31T08:26:30.513Z,22688.00
2023-05-31T08:27:30.558Z,23552.00
2023-05-31T08:28:30.654Z,20224.00
2023-05-31T08:29:30.741Z,23488.00
2023-05-31T08:30:30.877Z,22912.00
2023-05-31T08:31:31.042Z,22176.00
2023-05-31T08:32:31.123Z,23008.00
2023-05-31T08:33:31.207Z,24032.00
2023-05-31T08:34:31.315Z,23072.00
2023-05-31T08:35:31.427Z,25728.00
2023-05-31T08:36:31.612Z,28608.00
2023-05-31T08:37:31.705Z,30944.00
2023-05-31T08:38:31.837Z,32480.00
2023-05-31T08:39:31.976Z,33568.00
2023-05-31T08:40:32.051Z,34208.00
2023-05-31T08:41:32.216Z,32672.00
2023-05-31T08:42:32.317Z,33792.00
2023-05-31T08:43:32.433Z,35264.00
2023-05-31T08:44:32.564Z,36896.00
2023-05-31T08:45:32.714Z,38272.00
2023-05-31T08:46:32.830Z,39168.00
2023-05-31T08:47:33.006Z,39680.00
2023-05-31T08:48:33.069Z,39648.00
2023-05-31T08:49:33.218Z,40960.00
2023-05-31T08:50:33.311Z,40800.00
2023-05-31T08:51:33.463Z,41344.00
2023-05-31T08:52:33.600Z,42176.00
2023-05-31T08:53:33.692Z,42784.00
2023-05-31T08:54:33.791Z,46560.00
2023-05-31T08:55:34.007Z,44000.00
2023-05-31T08:56:34.077Z,43648.00
2023-05-31T08:57:34.233Z,41824.00
2023-05-31T08:58:34.385Z,41120.00
2023-05-31T08:59:34.416Z,41088.00
2023-05-31T09:00:34.518Z,41408.00
2023-05-31T09:01:34.639Z,44672.00
2023-05-31T09:02:34.774Z,44640.00
2023-05-31T09:03:34.886Z,45792.00
2023-05-31T09:04:34.988Z,45632.00
2023-05-31T09:05:35.255Z,45056.00
2023-05-31T09:06:35.231Z,46208.00
2023-05-31T09:07:35.374Z,45888.00
2023-05-31T09:08:35.429Z,48896.00
2023-05-31T09:09:35.571Z,48160.00
2023-05-31T09:10:35.720Z,50112.00
2023-05-31T09:11:35.812Z,49920.00
2023-05-31T09:12:35.918Z,51232.00
2023-05-31T09:13:36.054Z,52704.00
2023-05-31T09:14:36.135Z,53984.00
2023-05-31T09:15:36.248Z,54080.00
2023-05-31T09:16:36.367Z,54336.00
2023-05-31T09:17:36.488Z,53952.00
2023-05-31T09:18:36.594Z,54560.00
2023-05-31T09:19:36.726Z,54240.00
2023-05-31T09:20:36.842Z,53920.00
2023-05-31T09:21:36.902Z,52928.00
2023-05-31T09:22:37.056Z,52992.00
2023-05-31T09:23:37.159Z,54304.00
2023-05-31T09:24:37.288Z,55808.00
2023-05-31T09:25:37.372Z,55808.00
2023-05-31T09:26:37.474Z,54784.00
2023-05-31T09:27:37.627Z,54912.00
2023-05-31T09:28:37.777Z,55680.00
2023-05-31T09:29:37.876Z,57056.00
2023-05-31T09:30:38.015Z,57440.00
2023-05-31T09:31:38.135Z,57088.00
2023-05-31T09:32:38.354Z,59232.00
2023-05-31T09:33:38.389Z,71520.00
2023-05-31T09:34:38.536Z,69312.00
2023-05-31T09:35:38.634Z,73440.00
2023-05-31T09:36:38.772Z,79328.00
2023-05-31T09:37:38.902Z,80480.00
2023-05-31T09:38:39.068Z,75040.00
2023-05-31T09:39:39.200Z,73152.00
2023-05-31T09:40:39.357Z,63680.00
2023-05-31T09:41:39.423Z,61632.00
2023-05-31T09:42:39.525Z,59008.00
2023-05-31T09:43:39.756Z,60288.00
2023-05-31T09:44:39.778Z,65312.00
2023-05-31T09:45:39.878Z,68800.00
2023-05-31T09:46:40.031Z,74144.00
2023-05-31T09:47:40.140Z,78976.00
2023-05-31T09:48:40.414Z,79488.00
2023-05-31T09:49:40.423Z,87744.00
2023-05-31T09:50:40.522Z,89888.00
2023-05-31T09:51:40.701Z,84224.00
2023-05-31T09:52:40.814Z,83392.00
2023-05-31T09:53:40.975Z,81344.00
2023-05-31T09:54:41.096Z,68224.00
2023-05-31T09:55:41.196Z,61248.00
2023-05-31T09:56:41.301Z,50944.00
2023-05-31T09:57:41.626Z,48704.00
2023-05-31T09:58:41.548Z,43936.00
2023-05-31T09:59:42.170Z,43072.00
2023-05-31T10:00:41.727Z,42944.00
2023-05-31T10:01:41.916Z,43680.00
2023-05-31T10:02:43.009Z,44800.00
2023-05-31T10:03:42.097Z,45696.00
2023-05-31T10:04:42.232Z,46176.00
2023-05-31T10:05:42.332Z,48128.00
2023-05-31T10:06:42.461Z,47808.00
2023-05-31T10:07:42.656Z,46624.00
2023-05-31T10:08:42.756Z,47552.00
2023-05-31T10:09:42.870Z,47360.00
2023-05-31T10:10:43.030Z,47488.00
2023-05-31T10:11:43.125Z,46816.00
2023-05-31T10:12:43.265Z,44768.00
2023-05-31T10:13:43.406Z,45248.00
2023-05-31T10:14:43.553Z,43232.00
2023-05-31T10:15:43.665Z,43040.00
2023-05-31T10:16:43.851Z,42624.00
2023-05-31T10:17:43.863Z,43136.00
2023-05-31T10:18:43.987Z,43936.00
2023-05-31T10:19:44.149Z,41440.00
2023-05-31T10:20:44.286Z,41792.00
2023-05-31T10:21:44.398Z,41920.00
2023-05-31T10:22:44.505Z,41984.00
2023-05-31T10:23:44.707Z,42624.00
2023-05-31T10:24:44.790Z,42624.00
2023-05-31T10:25:44.973Z,42880.00
2023-05-31T10:26:45.126Z,46528.00
2023-05-31T10:27:45.216Z,43648.00
2023-05-31T10:28:45.352Z,41568.00
2023-05-31T10:29:45.462Z,39968.00
2023-05-31T10:30:45.703Z,40288.00
2023-05-31T10:31:45.737Z,39488.00
2023-05-31T10:32:45.838Z,41888.00
2023-05-31T10:33:45.975Z,44576.00
2023-05-31T10:34:46.059Z,43712.00
2023-05-31T10:35:49.715Z,43904.00
2023-05-31T10:36:46.340Z,44768.00
2023-05-31T10:37:46.462Z,43904.00
2023-05-31T10:38:46.658Z,43680.00
2023-05-31T10:39:46.707Z,43936.00
2023-05-31T10:40:46.869Z,43776.00
2023-05-31T10:41:46.973Z,47968.00
2023-05-31T10:42:47.259Z,45728.00
2023-05-31T10:43:47.251Z,46176.00
2023-05-31T10:44:47.372Z,48960.00
2023-05-31T10:45:47.434Z,48064.00
2023-05-31T10:46:47.622Z,48128.00
2023-05-31T10:47:47.832Z,47744.00
2023-05-31T10:48:47.811Z,48864.00
2023-05-31T10:49:47.968Z,49312.00
2023-05-31T10:50:48.088Z,49728.00
2023-05-31T10:51:48.253Z,49440.00
2023-05-31T10:52:48.326Z,49376.00
2023-05-31T10:53:48.511Z,49280.00
2023-05-31T10:54:48.631Z,49280.00
2023-05-31T10:55:48.731Z,48800.00
2023-05-31T10:56:48.895Z,48512.00
2023-05-31T10:57:48.993Z,49280.00
2023-05-31T10:58:49.101Z,48224.00
2023-05-31T10:59:49.220Z,44064.00
2023-05-31T11:00:49.355Z,47840.00
2023-05-31T11:01:49.474Z,48736.00
2023-05-31T11:02:49.673Z,48160.00
2023-05-31T11:03:49.807Z,48128.00
2023-05-31T11:04:49.894Z,70848.00
2023-05-31T11:05:49.966Z,45280.00
2023-05-31T11:06:50.106Z,46784.00
2023-05-31T11:07:50.231Z,46208.00
2023-05-31T11:08:50.370Z,46336.00
2023-05-31T11:09:50.471Z,43488.00
2023-05-31T11:10:50.624Z,47392.00
2023-05-31T11:11:50.720Z,46912.00
2023-05-31T11:12:50.876Z,63776.00
2023-05-31T11:13:51.050Z,35808.00
2023-05-31T11:14:51.125Z,43968.00
2023-05-31T11:15:51.224Z,43872.00
2023-05-31T11:16:51.347Z,45792.00
2023-05-31T11:17:51.619Z,40896.00
2023-05-31T11:18:51.565Z,45504.00
2023-05-31T11:19:51.742Z,35296.00
2023-05-31T11:20:51.864Z,37664.00
2023-05-31T11:21:51.944Z,33408.00
2023-05-31T11:22:52.079Z,37408.00
2023-05-31T11:23:52.242Z,33088.00
2023-05-31T11:24:52.470Z,23456.00
2023-05-31T11:25:52.536Z,14116.00
2023-05-31T11:26:52.625Z,29568.00
2023-05-31T11:27:52.820Z,33920.00
2023-05-31T11:28:52.928Z,12624.00
2023-05-31T11:29:53.106Z,0.00
2023-05-31T11:30:53.183Z,19264.00
2023-05-31T11:31:53.342Z,11440.00
2023-05-31T11:32:53.455Z,18784.00
2023-05-31T11:33:58.509Z,9024.00
2023-05-31T11:34:54.653Z,70336.00
2023-05-31T11:35:53.746Z,84256.00
2023-05-31T11:36:53.860Z,5184.00
2023-05-31T11:37:54.035Z,69696.00
2023-05-31T11:38:54.145Z,14432.00
2023-05-31T11:39:54.296Z,24576.00
2023-05-31T11:40:54.364Z,19872.00
2023-05-31T11:41:54.476Z,37696.00
2023-05-31T11:42:54.597Z,26656.00
2023-05-31T11:43:54.718Z,27936.00
2023-05-31T11:44:54.806Z,28480.00
2023-05-31T11:45:54.994Z,24768.00
2023-05-31T11:46:55.137Z,23840.00
2023-05-31T11:47:55.280Z,31776.00
2023-05-31T11:48:55.575Z,33632.00
2023-05-31T11:49:55.473Z,47840.00
2023-05-31T11:50:55.585Z,17952.00
2023-05-31T11:51:55.707Z,17664.00
2023-05-31T11:52:55.808Z,17440.00
2023-05-31T11:53:55.915Z,21632.00
2023-05-31T11:54:56.021Z,25824.00
2023-05-31T11:55:56.150Z,24832.00
2023-05-31T11:56:56.262Z,14400.00
2023-05-31T11:57:56.356Z,16960.00
2023-05-31T11:58:56.527Z,19456.00
2023-05-31T11:59:56.588Z,16736.00
2023-05-31T12:00:56.757Z,10920.00
2023-05-31T12:01:56.797Z,19456.00
2023-05-31T12:02:57.031Z,10928.00
2023-05-31T12:03:57.123Z,8720.00
2023-05-31T12:04:57.183Z,9156.00
2023-05-31T12:05:57.402Z,8840.00
2023-05-31T12:06:57.456Z,10024.00
2023-05-31T12:07:57.565Z,9724.00
2023-05-31T12:08:57.683Z,10076.00
2023-05-31T12:09:57.762Z,12344.00
2023-05-31T12:10:57.959Z,13808.00
2023-05-31T12:11:58.007Z,8160.00
2023-05-31T12:12:58.897Z,16416.00
2023-05-31T12:13:58.179Z,6256.00
2023-05-31T12:14:58.325Z,24192.00
2023-05-31T12:15:58.602Z,40160.00
2023-05-31T12:16:58.566Z,94432.00
2023-05-31T12:17:58.733Z,36128.00
2023-05-31T12:18:58.803Z,78368.00
2023-05-31T12:19:59.912Z,57824.00
2023-05-31T12:20:59.624Z,69056.00